sensor_id;sensor_type;location;lat;lon;timestamp;P1;durP1;ratioP1;P2;durP2;ratioP2
74577;SDS011;63173;49.086;33.418;2022-10-16T00:00:30;18.05;;;7.38;;
74577;SDS011;63173;49.086;33.418;2022-10-16T00:02:57;14.88;;;7.00;;
74577;SDS011;63173;49.086;33.418;2022-10-16T00:05:23;13.55;;;6.78;;
74577;SDS011;63173;49.086;33.418;2022-10-16T00:07:48;14.40;;;6.43;;
74577;SDS011;63173;49.086;33.418;2022-10-16T00:10:13;16.17;;;7.35;;
74577;SDS011;63173;49.086;33.418;2022-10-16T00:12:39;17.95;;;7.63;;
74577;SDS011;63173;49.086;33.418;2022-10-16T00:15:04;16.63;;;7.75;;
74577;SDS011;63173;49.086;33.418;2022-10-16T00:17:30;21.17;;;7.68;;
74577;SDS011;63173;49.086;33.418;2022-10-16T00:19:56;14.77;;;6.72;;
74577;SDS011;63173;49.086;33.418;2022-10-16T00:22:22;13.70;;;7.13;;
74577;SDS011;63173;49.086;33.418;2022-10-16T00:24:48;18.92;;;7.07;;
74577;SDS011;63173;49.086;33.418;2022-10-16T00:27:13;17.48;;;7.40;;
74577;SDS011;63173;49.086;33.418;2022-10-16T00:29:38;15.07;;;7.13;;
74577;SDS011;63173;49.086;33.418;2022-10-16T00:32:04;16.92;;;7.30;;
74577;SDS011;63173;49.086;33.418;2022-10-16T00:34:29;17.38;;;6.85;;
74577;SDS011;63173;49.086;33.418;2022-10-16T00:36:55;16.63;;;7.70;;
74577;SDS011;63173;49.086;33.418;2022-10-16T00:39:20;15.18;;;6.90;;
74577;SDS011;63173;49.086;33.418;2022-10-16T00:41:47;16.48;;;7.45;;
74577;SDS011;63173;49.086;33.418;2022-10-16T00:47:22;20.40;;;7.13;;
74577;SDS011;63173;49.086;33.418;2022-10-16T00:49:58;17.92;;;6.97;;
74577;SDS011;63173;49.086;33.418;2022-10-16T00:52:30;16.95;;;6.80;;
74577;SDS011;63173;49.086;33.418;2022-10-16T00:54:56;18.95;;;7.35;;
74577;SDS011;63173;49.086;33.418;2022-10-16T00:57:23;19.58;;;7.28;;
74577;SDS011;63173;49.086;33.418;2022-10-16T00:59:49;16.20;;;7.78;;
74577;SDS011;63173;49.086;33.418;2022-10-16T01:02:15;20.75;;;7.55;;
74577;SDS011;63173;49.086;33.418;2022-10-16T01:04:43;19.00;;;7.60;;
74577;SDS011;63173;49.086;33.418;2022-10-16T01:12:32;14.67;;;6.80;;
74577;SDS011;63173;49.086;33.418;2022-10-16T01:17:51;17.00;;;6.97;;
74577;SDS011;63173;49.086;33.418;2022-10-16T01:28:48;19.30;;;8.02;;
74577;SDS011;63173;49.086;33.418;2022-10-16T01:31:22;19.25;;;7.55;;
74577;SDS011;63173;49.086;33.418;2022-10-16T01:33:53;16.10;;;8.02;;
74577;SDS011;63173;49.086;33.418;2022-10-16T01:36:28;15.15;;;7.05;;
74577;SDS011;63173;49.086;33.418;2022-10-16T01:39:08;20.05;;;6.78;;
74577;SDS011;63173;49.086;33.418;2022-10-16T01:41:46;15.00;;;7.32;;
74577;SDS011;63173;49.086;33.418;2022-10-16T01:44:25;16.65;;;6.93;;
74577;SDS011;63173;49.086;33.418;2022-10-16T01:46:54;17.30;;;7.35;;
74577;SDS011;63173;49.086;33.418;2022-10-16T01:49:21;16.63;;;7.43;;
74577;SDS011;63173;49.086;33.418;2022-10-16T01:51:52;19.10;;;7.25;;
74577;SDS011;63173;49.086;33.418;2022-10-16T01:54:21;15.65;;;7.32;;
74577;SDS011;63173;49.086;33.418;2022-10-16T01:56:50;15.85;;;7.43;;
74577;SDS011;63173;49.086;33.418;2022-10-16T01:59:18;16.90;;;7.07;;
74577;SDS011;63173;49.086;33.418;2022-10-16T02:01:50;19.15;;;7.35;;
74577;SDS011;63173;49.086;33.418;2022-10-16T02:04:24;15.55;;;7.57;;
74577;SDS011;63173;49.086;33.418;2022-10-16T02:07:18;15.45;;;7.03;;
74577;SDS011;63173;49.086;33.418;2022-10-16T02:09:43;16.17;;;6.38;;
74577;SDS011;63173;49.086;33.418;2022-10-16T02:14:46;16.80;;;8.20;;
74577;SDS011;63173;49.086;33.418;2022-10-16T02:17:12;19.60;;;8.00;;
74577;SDS011;63173;49.086;33.418;2022-10-16T02:19:40;19.15;;;7.88;;
74577;SDS011;63173;49.086;33.418;2022-10-16T02:22:07;15.80;;;7.60;;
74577;SDS011;63173;49.086;33.418;2022-10-16T02:24:46;17.70;;;8.02;;
74577;SDS011;63173;49.086;33.418;2022-10-16T02:27:26;17.38;;;7.95;;
74577;SDS011;63173;49.086;33.418;2022-10-16T02:30:03;16.17;;;7.22;;
74577;SDS011;63173;49.086;33.418;2022-10-16T02:32:33;17.58;;;8.25;;
74577;SDS011;63173;49.086;33.418;2022-10-16T02:35:00;13.80;;;7.18;;
74577;SDS011;63173;49.086;33.418;2022-10-16T02:37:27;17.25;;;7.55;;
74577;SDS011;63173;49.086;33.418;2022-10-16T02:39:54;20.27;;;8.10;;
74577;SDS011;63173;49.086;33.418;2022-10-16T02:42:26;17.48;;;7.97;;
74577;SDS011;63173;49.086;33.418;2022-10-16T02:44:53;19.60;;;8.10;;
74577;SDS011;63173;49.086;33.418;2022-10-16T02:47:18;42.65;;;17.45;;
74577;SDS011;63173;49.086;33.418;2022-10-16T02:49:44;22.67;;;10.95;;
74577;SDS011;63173;49.086;33.418;2022-10-16T02:52:09;17.90;;;7.78;;
74577;SDS011;63173;49.086;33.418;2022-10-16T02:54:35;17.00;;;7.68;;
74577;SDS011;63173;49.086;33.418;2022-10-16T02:57:00;18.63;;;7.90;;
74577;SDS011;63173;49.086;33.418;2022-10-16T02:59:25;14.95;;;7.28;;
74577;SDS011;63173;49.086;33.418;2022-10-16T03:01:51;21.73;;;8.63;;
74577;SDS011;63173;49.086;33.418;2022-10-16T03:04:16;17.55;;;7.32;;
74577;SDS011;63173;49.086;33.418;2022-10-16T03:06:42;15.40;;;6.80;;
74577;SDS011;63173;49.086;33.418;2022-10-16T03:09:07;20.38;;;7.80;;
74577;SDS011;63173;49.086;33.418;2022-10-16T03:11:33;17.30;;;7.25;;
74577;SDS011;63173;49.086;33.418;2022-10-16T03:13:58;16.65;;;6.95;;
74577;SDS011;63173;49.086;33.418;2022-10-16T03:16:23;19.63;;;7.15;;
74577;SDS011;63173;49.086;33.418;2022-10-16T03:18:49;16.63;;;7.45;;
74577;SDS011;63173;49.086;33.418;2022-10-16T03:21:15;16.77;;;7.72;;
74577;SDS011;63173;49.086;33.418;2022-10-16T03:23:40;19.63;;;8.02;;
74577;SDS011;63173;49.086;33.418;2022-10-16T03:26:06;15.82;;;7.50;;
74577;SDS011;63173;49.086;33.418;2022-10-16T03:28:31;17.40;;;7.63;;
74577;SDS011;63173;49.086;33.418;2022-10-16T03:30:56;18.83;;;7.55;;
74577;SDS011;63173;49.086;33.418;2022-10-16T03:33:22;16.15;;;7.15;;
74577;SDS011;63173;49.086;33.418;2022-10-16T03:35:51;15.70;;;7.00;;
74577;SDS011;63173;49.086;33.418;2022-10-16T03:38:18;18.80;;;7.35;;
74577;SDS011;63173;49.086;33.418;2022-10-16T03:40:44;15.52;;;6.80;;
74577;SDS011;63173;49.086;33.418;2022-10-16T03:43:09;20.23;;;7.68;;
74577;SDS011;63173;49.086;33.418;2022-10-16T03:45:34;16.88;;;7.93;;
74577;SDS011;63173;49.086;33.418;2022-10-16T03:48:00;19.75;;;7.85;;
74577;SDS011;63173;49.086;33.418;2022-10-16T03:50:25;21.42;;;8.93;;
74577;SDS011;63173;49.086;33.418;2022-10-16T03:52:51;19.60;;;7.55;;
74577;SDS011;63173;49.086;33.418;2022-10-16T03:55:16;17.80;;;7.53;;
74577;SDS011;63173;49.086;33.418;2022-10-16T03:57:42;15.50;;;7.28;;
74577;SDS011;63173;49.086;33.418;2022-10-16T04:00:07;20.52;;;7.80;;
74577;SDS011;63173;49.086;33.418;2022-10-16T04:02:33;18.98;;;7.72;;
74577;SDS011;63173;49.086;33.418;2022-10-16T04:04:59;16.77;;;7.55;;
74577;SDS011;63173;49.086;33.418;2022-10-16T04:07:24;16.25;;;7.50;;
74577;SDS011;63173;49.086;33.418;2022-10-16T04:09:49;19.42;;;7.25;;
74577;SDS011;63173;49.086;33.418;2022-10-16T04:12:17;15.25;;;6.82;;
74577;SDS011;63173;49.086;33.418;2022-10-16T04:14:42;16.80;;;7.82;;
74577;SDS011;63173;49.086;33.418;2022-10-16T04:17:07;24.15;;;7.50;;
74577;SDS011;63173;49.086;33.418;2022-10-16T04:19:33;17.80;;;7.40;;
74577;SDS011;63173;49.086;33.418;2022-10-16T04:21:58;16.15;;;7.50;;
74577;SDS011;63173;49.086;33.418;2022-10-16T04:24:24;21.95;;;8.35;;
74577;SDS011;63173;49.086;33.418;2022-10-16T04:26:49;14.57;;;6.60;;
74577;SDS011;63173;49.086;33.418;2022-10-16T04:29:15;18.00;;;7.63;;
74577;SDS011;63173;49.086;33.418;2022-10-16T04:31:40;16.08;;;7.43;;
74577;SDS011;63173;49.086;33.418;2022-10-16T04:34:05;14.07;;;6.65;;
74577;SDS011;63173;49.086;33.418;2022-10-16T04:36:31;15.48;;;7.38;;
74577;SDS011;63173;49.086;33.418;2022-10-16T04:38:56;17.52;;;7.72;;
74577;SDS011;63173;49.086;33.418;2022-10-16T04:41:22;19.92;;;8.27;;
74577;SDS011;63173;49.086;33.418;2022-10-16T04:43:47;16.73;;;7.32;;
74577;SDS011;63173;49.086;33.418;2022-10-16T04:46:13;18.65;;;8.70;;
74577;SDS011;63173;49.086;33.418;2022-10-16T04:48:38;16.77;;;8.10;;
74577;SDS011;63173;49.086;33.418;2022-10-16T04:51:04;21.45;;;8.73;;
74577;SDS011;63173;49.086;33.418;2022-10-16T04:53:29;22.17;;;9.63;;
74577;SDS011;63173;49.086;33.418;2022-10-16T04:55:55;18.10;;;8.00;;
74577;SDS011;63173;49.086;33.418;2022-10-16T04:58:22;21.38;;;7.78;;
74577;SDS011;63173;49.086;33.418;2022-10-16T05:00:47;20.45;;;8.80;;
74577;SDS011;63173;49.086;33.418;2022-10-16T05:03:12;23.48;;;8.93;;
74577;SDS011;63173;49.086;33.418;2022-10-16T05:05:42;15.43;;;7.57;;
74577;SDS011;63173;49.086;33.418;2022-10-16T05:08:11;19.00;;;8.07;;
74577;SDS011;63173;49.086;33.418;2022-10-16T05:10:38;18.08;;;7.60;;
74577;SDS011;63173;49.086;33.418;2022-10-16T05:13:04;19.13;;;8.07;;
74577;SDS011;63173;49.086;33.418;2022-10-16T05:15:29;22.95;;;9.45;;
74577;SDS011;63173;49.086;33.418;2022-10-16T05:17:55;19.85;;;8.20;;
74577;SDS011;63173;49.086;33.418;2022-10-16T05:20:21;17.17;;;8.32;;
74577;SDS011;63173;49.086;33.418;2022-10-16T05:22:47;17.08;;;8.40;;
74577;SDS011;63173;49.086;33.418;2022-10-16T05:25:13;20.30;;;8.05;;
74577;SDS011;63173;49.086;33.418;2022-10-16T05:27:38;19.35;;;8.10;;
74577;SDS011;63173;49.086;33.418;2022-10-16T05:30:04;22.88;;;9.32;;
74577;SDS011;63173;49.086;33.418;2022-10-16T05:32:30;17.15;;;8.20;;
74577;SDS011;63173;49.086;33.418;2022-10-16T05:34:55;20.73;;;7.93;;
74577;SDS011;63173;49.086;33.418;2022-10-16T05:37:21;18.88;;;9.02;;
74577;SDS011;63173;49.086;33.418;2022-10-16T05:39:46;17.30;;;8.48;;
74577;SDS011;63173;49.086;33.418;2022-10-16T05:42:12;19.15;;;8.30;;
74577;SDS011;63173;49.086;33.418;2022-10-16T05:44:37;20.15;;;8.60;;
74577;SDS011;63173;49.086;33.418;2022-10-16T05:47:03;17.33;;;7.57;;
74577;SDS011;63173;49.086;33.418;2022-10-16T05:49:28;21.17;;;8.23;;
74577;SDS011;63173;49.086;33.418;2022-10-16T05:51:53;26.02;;;8.10;;
74577;SDS011;63173;49.086;33.418;2022-10-16T05:54:19;19.40;;;8.38;;
74577;SDS011;63173;49.086;33.418;2022-10-16T05:56:44;21.38;;;8.35;;
74577;SDS011;63173;49.086;33.418;2022-10-16T05:59:09;22.95;;;8.00;;
74577;SDS011;63173;49.086;33.418;2022-10-16T06:01:35;16.67;;;8.07;;
74577;SDS011;63173;49.086;33.418;2022-10-16T06:04:00;17.42;;;7.88;;
74577;SDS011;63173;49.086;33.418;2022-10-16T06:06:27;19.23;;;7.78;;
74577;SDS011;63173;49.086;33.418;2022-10-16T06:08:55;15.50;;;7.53;;
74577;SDS011;63173;49.086;33.418;2022-10-16T06:11:22;18.83;;;6.97;;
74577;SDS011;63173;49.086;33.418;2022-10-16T06:13:50;13.63;;;6.60;;
74577;SDS011;63173;49.086;33.418;2022-10-16T06:16:16;16.75;;;7.57;;
74577;SDS011;63173;49.086;33.418;2022-10-16T06:18:42;18.52;;;8.25;;
74577;SDS011;63173;49.086;33.418;2022-10-16T06:23:39;24.73;;;10.43;;
74577;SDS011;63173;49.086;33.418;2022-10-16T06:26:08;16.30;;;7.78;;
74577;SDS011;63173;49.086;33.418;2022-10-16T06:28:40;16.38;;;7.68;;
74577;SDS011;63173;49.086;33.418;2022-10-16T06:31:06;15.73;;;7.22;;
74577;SDS011;63173;49.086;33.418;2022-10-16T06:33:33;16.98;;;7.93;;
74577;SDS011;63173;49.086;33.418;2022-10-16T06:36:06;14.85;;;7.53;;
74577;SDS011;63173;49.086;33.418;2022-10-16T06:38:38;15.63;;;7.07;;
74577;SDS011;63173;49.086;33.418;2022-10-16T06:41:04;16.05;;;7.57;;
74577;SDS011;63173;49.086;33.418;2022-10-16T06:43:31;12.90;;;6.45;;
74577;SDS011;63173;49.086;33.418;2022-10-16T06:45:57;17.83;;;7.75;;
74577;SDS011;63173;49.086;33.418;2022-10-16T06:48:24;14.98;;;7.53;;
74577;SDS011;63173;49.086;33.418;2022-10-16T06:50:57;20.40;;;7.75;;
74577;SDS011;63173;49.086;33.418;2022-10-16T06:53:30;15.32;;;7.35;;
74577;SDS011;63173;49.086;33.418;2022-10-16T06:56:10;17.23;;;7.68;;
74577;SDS011;63173;49.086;33.418;2022-10-16T06:58:37;13.52;;;7.07;;
74577;SDS011;63173;49.086;33.418;2022-10-16T07:01:03;13.23;;;6.88;;
74577;SDS011;63173;49.086;33.418;2022-10-16T07:03:29;12.02;;;6.60;;
74577;SDS011;63173;49.086;33.418;2022-10-16T07:05:54;16.02;;;7.25;;
74577;SDS011;63173;49.086;33.418;2022-10-16T07:08:20;14.68;;;7.00;;
74577;SDS011;63173;49.086;33.418;2022-10-16T07:10:46;13.55;;;6.50;;
74577;SDS011;63173;49.086;33.418;2022-10-16T07:13:11;20.40;;;6.85;;
74577;SDS011;63173;49.086;33.418;2022-10-16T07:15:40;12.88;;;5.72;;
74577;SDS011;63173;49.086;33.418;2022-10-16T07:18:06;17.70;;;5.85;;
74577;SDS011;63173;49.086;33.418;2022-10-16T07:20:32;21.83;;;9.25;;
74577;SDS011;63173;49.086;33.418;2022-10-16T07:22:57;12.13;;;5.90;;
74577;SDS011;63173;49.086;33.418;2022-10-16T07:25:23;14.43;;;6.00;;
74577;SDS011;63173;49.086;33.418;2022-10-16T07:27:49;15.82;;;6.78;;
74577;SDS011;63173;49.086;33.418;2022-10-16T07:30:14;11.13;;;5.90;;
74577;SDS011;63173;49.086;33.418;2022-10-16T07:32:39;16.17;;;5.88;;
74577;SDS011;63173;49.086;33.418;2022-10-16T07:35:05;12.43;;;5.90;;
74577;SDS011;63173;49.086;33.418;2022-10-16T07:37:31;11.23;;;5.47;;
74577;SDS011;63173;49.086;33.418;2022-10-16T07:39:57;10.88;;;5.57;;
74577;SDS011;63173;49.086;33.418;2022-10-16T07:42:22;10.80;;;4.70;;
74577;SDS011;63173;49.086;33.418;2022-10-16T07:44:48;9.55;;;5.00;;
74577;SDS011;63173;49.086;33.418;2022-10-16T07:47:13;10.93;;;5.40;;
74577;SDS011;63173;49.086;33.418;2022-10-16T07:49:38;8.80;;;4.97;;
74577;SDS011;63173;49.086;33.418;2022-10-16T07:52:04;10.07;;;5.25;;
74577;SDS011;63173;49.086;33.418;2022-10-16T07:54:29;10.15;;;5.28;;
74577;SDS011;63173;49.086;33.418;2022-10-16T07:56:55;13.85;;;5.40;;
74577;SDS011;63173;49.086;33.418;2022-10-16T07:59:20;11.88;;;5.80;;
74577;SDS011;63173;49.086;33.418;2022-10-16T08:01:45;15.68;;;6.22;;
74577;SDS011;63173;49.086;33.418;2022-10-16T08:04:11;10.38;;;5.28;;
74577;SDS011;63173;49.086;33.418;2022-10-16T08:06:37;14.25;;;5.03;;
74577;SDS011;63173;49.086;33.418;2022-10-16T08:09:04;16.77;;;4.55;;
74577;SDS011;63173;49.086;33.418;2022-10-16T08:11:30;9.27;;;4.50;;
74577;SDS011;63173;49.086;33.418;2022-10-16T08:13:56;14.02;;;4.35;;
74577;SDS011;63173;49.086;33.418;2022-10-16T08:16:21;9.10;;;4.22;;
74577;SDS011;63173;49.086;33.418;2022-10-16T08:18:47;10.23;;;4.75;;
74577;SDS011;63173;49.086;33.418;2022-10-16T08:21:13;9.05;;;3.75;;
74577;SDS011;63173;49.086;33.418;2022-10-16T08:23:41;8.60;;;3.97;;
74577;SDS011;63173;49.086;33.418;2022-10-16T08:26:07;6.68;;;3.50;;
74577;SDS011;63173;49.086;33.418;2022-10-16T08:28:34;9.00;;;4.10;;
74577;SDS011;63173;49.086;33.418;2022-10-16T08:31:13;7.75;;;3.83;;
74577;SDS011;63173;49.086;33.418;2022-10-16T08:33:41;9.45;;;4.10;;
74577;SDS011;63173;49.086;33.418;2022-10-16T08:38:34;5.90;;;3.33;;
74577;SDS011;63173;49.086;33.418;2022-10-16T08:49:47;6.75;;;2.92;;
74577;SDS011;63173;49.086;33.418;2022-10-16T08:52:21;5.78;;;3.28;;
74577;SDS011;63173;49.086;33.418;2022-10-16T08:54:50;8.32;;;4.05;;
74577;SDS011;63173;49.086;33.418;2022-10-16T08:57:19;5.72;;;3.47;;
74577;SDS011;63173;49.086;33.418;2022-10-16T08:59:46;6.35;;;3.10;;
74577;SDS011;63173;49.086;33.418;2022-10-16T09:04:54;6.35;;;3.13;;
74577;SDS011;63173;49.086;33.418;2022-10-16T09:07:29;4.72;;;2.80;;
74577;SDS011;63173;49.086;33.418;2022-10-16T09:15:29;4.50;;;2.42;;
74577;SDS011;63173;49.086;33.418;2022-10-16T09:21:14;6.45;;;3.00;;
74577;SDS011;63173;49.086;33.418;2022-10-16T09:23:44;8.45;;;3.35;;
74577;SDS011;63173;49.086;33.418;2022-10-16T09:26:11;5.82;;;2.88;;
74577;SDS011;63173;49.086;33.418;2022-10-16T09:28:38;3.85;;;2.35;;
74577;SDS011;63173;49.086;33.418;2022-10-16T09:31:04;6.05;;;2.53;;
74577;SDS011;63173;49.086;33.418;2022-10-16T09:33:36;5.68;;;2.72;;
74577;SDS011;63173;49.086;33.418;2022-10-16T09:36:04;6.65;;;3.00;;
74577;SDS011;63173;49.086;33.418;2022-10-16T09:38:34;9.50;;;2.80;;
74577;SDS011;63173;49.086;33.418;2022-10-16T09:41:12;7.40;;;2.83;;
74577;SDS011;63173;49.086;33.418;2022-10-16T09:46:07;4.22;;;2.55;;
74577;SDS011;63173;49.086;33.418;2022-10-16T09:48:46;4.07;;;2.40;;
74577;SDS011;63173;49.086;33.418;2022-10-16T09:51:25;6.43;;;2.40;;
74577;SDS011;63173;49.086;33.418;2022-10-16T09:56:35;6.30;;;2.60;;
74577;SDS011;63173;49.086;33.418;2022-10-16T09:59:11;6.75;;;2.33;;
74577;SDS011;63173;49.086;33.418;2022-10-16T10:04:05;7.28;;;2.30;;
74577;SDS011;63173;49.086;33.418;2022-10-16T10:06:35;4.03;;;2.42;;
74577;SDS011;63173;49.086;33.418;2022-10-16T10:09:06;6.10;;;2.80;;
74577;SDS011;63173;49.086;33.418;2022-10-16T10:11:42;5.63;;;2.70;;
74577;SDS011;63173;49.086;33.418;2022-10-16T10:14:51;7.90;;;2.78;;
74577;SDS011;63173;49.086;33.418;2022-10-16T10:17:23;6.40;;;2.85;;
74577;SDS011;63173;49.086;33.418;2022-10-16T10:22:19;8.35;;;2.70;;
74577;SDS011;63173;49.086;33.418;2022-10-16T10:27:21;6.80;;;2.47;;
74577;SDS011;63173;49.086;33.418;2022-10-16T10:32:37;4.22;;;2.20;;
74577;SDS011;63173;49.086;33.418;2022-10-16T10:35:45;5.20;;;2.25;;
74577;SDS011;63173;49.086;33.418;2022-10-16T10:38:41;3.90;;;2.30;;
74577;SDS011;63173;49.086;33.418;2022-10-16T10:44:16;9.25;;;2.80;;
74577;SDS011;63173;49.086;33.418;2022-10-16T11:09:31;10.27;;;2.55;;
74577;SDS011;63173;49.086;33.418;2022-10-16T11:17:48;4.18;;;2.28;;
74577;SDS011;63173;49.086;33.418;2022-10-16T11:20:42;5.85;;;2.47;;
74577;SDS011;63173;49.086;33.418;2022-10-16T11:23:13;12.25;;;2.63;;
74577;SDS011;63173;49.086;33.418;2022-10-16T11:25:43;4.40;;;2.20;;
74577;SDS011;63173;49.086;33.418;2022-10-16T11:28:11;4.32;;;2.08;;
74577;SDS011;63173;49.086;33.418;2022-10-16T11:30:44;6.35;;;2.30;;
74577;SDS011;63173;49.086;33.418;2022-10-16T11:40:57;7.10;;;2.53;;
74577;SDS011;63173;49.086;33.418;2022-10-16T11:43:28;4.82;;;2.00;;
74577;SDS011;63173;49.086;33.418;2022-10-16T11:46:04;5.53;;;2.40;;
74577;SDS011;63173;49.086;33.418;2022-10-16T11:48:55;3.17;;;2.33;;
74577;SDS011;63173;49.086;33.418;2022-10-16T11:51:33;11.25;;;2.03;;
74577;SDS011;63173;49.086;33.418;2022-10-16T13:21:57;5.20;;;2.58;;
74577;SDS011;63173;49.086;33.418;2022-10-16T13:24:46;5.00;;;2.53;;
74577;SDS011;63173;49.086;33.418;2022-10-16T13:30:28;6.65;;;2.20;;
74577;SDS011;63173;49.086;33.418;2022-10-16T13:33:06;6.93;;;2.63;;
74577;SDS011;63173;49.086;33.418;2022-10-16T13:35:46;7.45;;;3.15;;
74577;SDS011;63173;49.086;33.418;2022-10-16T13:43:47;9.20;;;3.53;;
74577;SDS011;63173;49.086;33.418;2022-10-16T13:46:19;17.50;;;3.72;;
74577;SDS011;63173;49.086;33.418;2022-10-16T13:49:05;5.38;;;3.15;;
74577;SDS011;63173;49.086;33.418;2022-10-16T13:51:36;8.20;;;3.38;;
74577;SDS011;63173;49.086;33.418;2022-10-16T13:54:02;5.93;;;3.00;;
74577;SDS011;63173;49.086;33.418;2022-10-16T13:56:29;5.85;;;3.05;;
74577;SDS011;63173;49.086;33.418;2022-10-16T13:59:04;6.85;;;3.53;;
74577;SDS011;63173;49.086;33.418;2022-10-16T14:01:33;7.53;;;3.60;;
74577;SDS011;63173;49.086;33.418;2022-10-16T14:04:05;7.53;;;3.70;;
74577;SDS011;63173;49.086;33.418;2022-10-16T14:06:34;11.82;;;4.22;;
74577;SDS011;63173;49.086;33.418;2022-10-16T14:09:04;12.95;;;4.80;;
74577;SDS011;63173;49.086;33.418;2022-10-16T14:11:31;5.80;;;3.30;;
74577;SDS011;63173;49.086;33.418;2022-10-16T14:13:59;10.40;;;3.80;;
74577;SDS011;63173;49.086;33.418;2022-10-16T14:16:26;10.75;;;4.00;;
74577;SDS011;63173;49.086;33.418;2022-10-16T14:19:00;9.65;;;3.83;;
74577;SDS011;63173;49.086;33.418;2022-10-16T14:21:28;18.15;;;3.92;;
74577;SDS011;63173;49.086;33.418;2022-10-16T14:23:55;12.32;;;4.20;;
74577;SDS011;63173;49.086;33.418;2022-10-16T14:26:24;19.65;;;5.80;;
74577;SDS011;63173;49.086;33.418;2022-10-16T14:29:10;12.48;;;3.75;;
74577;SDS011;63173;49.086;33.418;2022-10-16T14:31:38;9.65;;;3.67;;
74577;SDS011;63173;49.086;33.418;2022-10-16T14:34:22;11.55;;;4.22;;
74577;SDS011;63173;49.086;33.418;2022-10-16T14:39:19;8.75;;;5.00;;
74577;SDS011;63173;49.086;33.418;2022-10-16T14:41:47;12.70;;;4.00;;
74577;SDS011;63173;49.086;33.418;2022-10-16T14:44:17;16.35;;;4.90;;
74577;SDS011;63173;49.086;33.418;2022-10-16T14:46:44;12.63;;;4.40;;
74577;SDS011;63173;49.086;33.418;2022-10-16T14:51:36;8.97;;;4.60;;
74577;SDS011;63173;49.086;33.418;2022-10-16T14:54:02;10.45;;;4.35;;
74577;SDS011;63173;49.086;33.418;2022-10-16T14:59:17;11.68;;;4.78;;
74577;SDS011;63173;49.086;33.418;2022-10-16T15:01:47;35.45;;;13.65;;
74577;SDS011;63173;49.086;33.418;2022-10-16T15:04:13;19.88;;;8.27;;
74577;SDS011;63173;49.086;33.418;2022-10-16T15:06:39;20.77;;;9.82;;
74577;SDS011;63173;49.086;33.418;2022-10-16T15:09:05;16.98;;;7.95;;
74577;SDS011;63173;49.086;33.418;2022-10-16T15:11:31;17.13;;;7.07;;
74577;SDS011;63173;49.086;33.418;2022-10-16T15:13:57;15.13;;;6.03;;
74577;SDS011;63173;49.086;33.418;2022-10-16T15:16:23;12.95;;;5.90;;
74577;SDS011;63173;49.086;33.418;2022-10-16T15:18:49;16.13;;;7.80;;
74577;SDS011;63173;49.086;33.418;2022-10-16T15:21:20;13.73;;;6.45;;
74577;SDS011;63173;49.086;33.418;2022-10-16T15:23:49;15.27;;;6.28;;
74577;SDS011;63173;49.086;33.418;2022-10-16T15:26:15;18.00;;;8.60;;
74577;SDS011;63173;49.086;33.418;2022-10-16T15:28:41;15.90;;;5.82;;
74577;SDS011;63173;49.086;33.418;2022-10-16T15:31:06;13.55;;;6.53;;
74577;SDS011;63173;49.086;33.418;2022-10-16T15:33:32;14.15;;;5.60;;
74577;SDS011;63173;49.086;33.418;2022-10-16T15:35:59;12.48;;;5.57;;
74577;SDS011;63173;49.086;33.418;2022-10-16T15:38:26;16.45;;;5.60;;
74577;SDS011;63173;49.086;33.418;2022-10-16T15:40:53;35.38;;;12.00;;
74577;SDS011;63173;49.086;33.418;2022-10-16T15:43:18;15.27;;;6.95;;
74577;SDS011;63173;49.086;33.418;2022-10-16T15:45:44;24.33;;;10.32;;
74577;SDS011;63173;49.086;33.418;2022-10-16T15:48:23;31.85;;;12.07;;
74577;SDS011;63173;49.086;33.418;2022-10-16T15:50:48;20.85;;;9.40;;
74577;SDS011;63173;49.086;33.418;2022-10-16T15:53:14;22.08;;;10.10;;
74577;SDS011;63173;49.086;33.418;2022-10-16T15:55:39;20.63;;;7.47;;
74577;SDS011;63173;49.086;33.418;2022-10-16T15:58:05;21.17;;;8.25;;
74577;SDS011;63173;49.086;33.418;2022-10-16T16:00:30;23.05;;;7.93;;
74577;SDS011;63173;49.086;33.418;2022-10-16T16:02:56;22.83;;;8.90;;
74577;SDS011;63173;49.086;33.418;2022-10-16T16:05:21;30.67;;;10.93;;
74577;SDS011;63173;49.086;33.418;2022-10-16T16:07:47;22.38;;;9.63;;
74577;SDS011;63173;49.086;33.418;2022-10-16T16:10:13;17.70;;;8.82;;
74577;SDS011;63173;49.086;33.418;2022-10-16T16:12:39;23.52;;;9.05;;
74577;SDS011;63173;49.086;33.418;2022-10-16T16:15:05;24.17;;;8.77;;
74577;SDS011;63173;49.086;33.418;2022-10-16T16:17:32;29.27;;;10.07;;
74577;SDS011;63173;49.086;33.418;2022-10-16T16:19:59;21.90;;;9.95;;
74577;SDS011;63173;49.086;33.418;2022-10-16T16:22:24;23.40;;;9.63;;
74577;SDS011;63173;49.086;33.418;2022-10-16T16:24:50;29.73;;;11.07;;
74577;SDS011;63173;49.086;33.418;2022-10-16T16:27:15;30.50;;;10.48;;
74577;SDS011;63173;49.086;33.418;2022-10-16T16:29:41;32.67;;;11.73;;
74577;SDS011;63173;49.086;33.418;2022-10-16T16:32:07;24.63;;;10.80;;
74577;SDS011;63173;49.086;33.418;2022-10-16T16:34:32;24.92;;;10.93;;
74577;SDS011;63173;49.086;33.418;2022-10-16T16:36:58;30.17;;;11.30;;
74577;SDS011;63173;49.086;33.418;2022-10-16T16:39:23;27.13;;;11.15;;
74577;SDS011;63173;49.086;33.418;2022-10-16T16:41:49;33.95;;;14.32;;
74577;SDS011;63173;49.086;33.418;2022-10-16T16:44:15;32.70;;;13.55;;
74577;SDS011;63173;49.086;33.418;2022-10-16T16:46:42;32.55;;;13.85;;
74577;SDS011;63173;49.086;33.418;2022-10-16T16:49:09;37.08;;;14.15;;
74577;SDS011;63173;49.086;33.418;2022-10-16T16:51:36;31.60;;;13.63;;
74577;SDS011;63173;49.086;33.418;2022-10-16T16:54:03;35.35;;;12.93;;
74577;SDS011;63173;49.086;33.418;2022-10-16T16:56:29;34.40;;;14.07;;
74577;SDS011;63173;49.086;33.418;2022-10-16T16:58:55;28.75;;;12.13;;
74577;SDS011;63173;49.086;33.418;2022-10-16T17:01:22;33.33;;;13.50;;
74577;SDS011;63173;49.086;33.418;2022-10-16T17:03:50;35.13;;;13.50;;
74577;SDS011;63173;49.086;33.418;2022-10-16T17:06:17;34.95;;;13.50;;
74577;SDS011;63173;49.086;33.418;2022-10-16T17:08:44;31.33;;;12.38;;
74577;SDS011;63173;49.086;33.418;2022-10-16T17:11:17;35.70;;;13.10;;
74577;SDS011;63173;49.086;33.418;2022-10-16T17:13:46;29.05;;;12.20;;
74577;SDS011;63173;49.086;33.418;2022-10-16T17:16:12;27.45;;;11.48;;
74577;SDS011;63173;49.086;33.418;2022-10-16T17:18:38;29.67;;;11.77;;
74577;SDS011;63173;49.086;33.418;2022-10-16T17:21:04;27.70;;;12.18;;
74577;SDS011;63173;49.086;33.418;2022-10-16T17:23:32;27.98;;;11.50;;
74577;SDS011;63173;49.086;33.418;2022-10-16T17:26:09;24.27;;;10.95;;
74577;SDS011;63173;49.086;33.418;2022-10-16T17:28:37;29.63;;;11.38;;
74577;SDS011;63173;49.086;33.418;2022-10-16T17:31:06;29.60;;;12.23;;
74577;SDS011;63173;49.086;33.418;2022-10-16T17:33:36;32.10;;;11.07;;
74577;SDS011;63173;49.086;33.418;2022-10-16T17:36:02;30.58;;;12.35;;
74577;SDS011;63173;49.086;33.418;2022-10-16T17:38:28;41.92;;;15.73;;
74577;SDS011;63173;49.086;33.418;2022-10-16T17:40:54;37.47;;;15.52;;
74577;SDS011;63173;49.086;33.418;2022-10-16T17:43:19;31.15;;;13.25;;
74577;SDS011;63173;49.086;33.418;2022-10-16T17:45:45;25.73;;;12.20;;
74577;SDS011;63173;49.086;33.418;2022-10-16T17:48:10;25.27;;;12.32;;
74577;SDS011;63173;49.086;33.418;2022-10-16T17:50:39;33.83;;;13.27;;
74577;SDS011;63173;49.086;33.418;2022-10-16T17:53:05;33.38;;;14.13;;
74577;SDS011;63173;49.086;33.418;2022-10-16T17:55:36;31.60;;;13.48;;